Time;durP1;ratioP1;P1;durP2;ratioP2;P2;SDS_P1;SDS_P2;PMS_P1;PMS_P2;Temp;Humidity;BMP_temperature;BMP_pressure;BME280_temperature;BME280_humidity;BME280_pressure;Samples;Min_cycle;Max_cycle;Signal;HPM_P1;HPM_P2
2022/07/02 00:00:24;;;;;;;12.20;7.20;;;;;;;23.89;46.77;100585.77;117354;1182;24712;-54
2022/07/02 00:02:52;;;;;;;9.90;6.30;;;;;;;23.89;46.70;100585.77;117341;1180;22935;-54
2022/07/02 00:05:22;;;;;;;9.90;6.50;;;;;;;23.88;46.55;100583.86;117346;1186;21852;-54
2022/07/02 00:07:50;;;;;;;14.70;6.80;;;;;;;23.87;46.69;100586.41;117355;1186;21852;-51
2022/07/02 00:10:18;;;;;;;12.60;7.10;;;;;;;23.86;46.81;100587.00;117349;1183;22973;-51
2022/07/02 00:12:45;;;;;;;7.50;5.70;;;;;;;23.85;46.74;100594.48;117151;1188;21837;-55
2022/07/02 00:15:12;;;;;;;9.30;7.10;;;;;;;23.83;46.84;100593.16;117102;1186;23541;-52
2022/07/02 00:17:39;;;;;;;11.00;6.50;;;;;;;23.77;46.98;100594.79;117053;1185;21872;-52
2022/07/02 00:20:07;;;;;;;11.40;6.30;;;;;;;23.76;47.00;100602.58;117030;1186;22915;-54
2022/07/02 00:22:34;;;;;;;9.30;6.80;;;;;;;23.80;46.97;100600.67;117273;1186;23569;-55
2022/07/02 00:25:00;;;;;;;12.10;6.70;;;;;;;23.76;47.13;100600.60;117232;1188;24239;-53
2022/07/02 00:27:28;;;;;;;8.20;6.70;;;;;;;23.70;47.28;100606.37;117098;1188;22951;-54
2022/07/02 00:29:58;;;;;;;10.40;6.30;;;;;;;23.69;47.32;100606.02;117124;1184;22993;-52
2022/07/02 00:32:27;;;;;;;10.90;6.90;;;;;;;23.67;47.42;100604.02;117071;1188;22718;-54
2022/07/02 00:34:55;;;;;;;7.50;6.10;;;;;;;23.60;47.42;100607.36;117135;1186;21856;-55
2022/07/02 00:37:23;;;;;;;8.90;6.90;;;;;;;23.57;47.25;100606.79;117336;1185;23681;-52
2022/07/02 00:39:50;;;;;;;8.40;6.40;;;;;;;23.54;47.47;100605.76;117317;1185;23443;-54
2022/07/02 00:42:17;;;;;;;13.20;6.70;;;;;;;23.47;47.70;100606.01;117311;1186;23638;-52
2022/07/02 00:44:44;;;;;;;8.10;6.50;;;;;;;23.40;47.81;100612.30;117157;1185;24163;-54
2022/07/02 00:47:11;;;;;;;12.10;7.60;;;;;;;23.40;47.78;100612.32;117086;1188;24162;-54
2022/07/02 00:49:38;;;;;;;52.80;24.50;;;;;;;23.37;47.75;100611.63;116930;1184;21888;-54
2022/07/02 00:52:05;;;;;;;47.20;25.20;;;;;;;23.33;47.68;100612.79;117301;1185;22990;-54
2022/07/02 00:54:33;;;;;;;48.00;26.40;;;;;;;23.30;47.71;100612.08;117186;1182;21885;-55
2022/07/02 00:57:00;;;;;;;40.50;21.60;;;;;;;23.26;47.79;100606.95;117362;1183;22921;-55
2022/07/02 00:59:27;;;;;;;46.00;20.50;;;;;;;23.22;47.90;100613.26;117177;1185;23640;-52
2022/07/02 01:01:54;;;;;;;37.80;19.90;;;;;;;23.19;48.01;100612.89;117092;1188;24149;-55
2022/07/02 01:04:23;;;;;;;34.80;18.20;;;;;;;23.15;47.90;100610.25;117353;1181;22915;-54
2022/07/02 01:06:50;;;;;;;27.60;15.20;;;;;;;23.10;47.98;100611.29;117102;1187;22920;-52
2022/07/02 01:12:03;;;;;;;22.10;12.60;;;;;;;22.93;48.12;100614.27;117312;1185;22918;-52
2022/07/02 01:14:30;;;;;;;21.90;11.80;;;;;;;22.86;48.11;100614.86;117371;1183;22709;-52
2022/07/02 01:16:57;;;;;;;19.40;11.50;;;;;;;22.81;48.12;100613.17;117222;1187;21898;-52
2022/07/02 01:19:24;;;;;;;16.50;10.70;;;;;;;22.77;48.32;100611.30;117319;1186;23368;-52
2022/07/02 01:22:12;;;;;;;16.10;10.70;;;;;;;22.68;48.36;100612.88;117250;1185;24152;-51
2022/07/02 01:24:38;;;;;;;11.40;8.20;;;;;;;22.53;48.53;100617.55;117285;1185;23485;-52
2022/07/02 01:27:06;;;;;;;15.50;9.20;;;;;;;22.37;48.53;100620.20;117045;1188;21859;-54
2022/07/02 01:29:33;;;;;;;15.70;7.70;;;;;;;22.28;49.00;100623.94;117140;1187;23559;-53
2022/07/02 01:32:00;;;;;;;11.40;8.10;;;;;;;22.24;49.16;100623.80;117308;1183;22892;-53
2022/07/02 01:34:27;;;;;;;11.90;7.80;;;;;;;22.21;48.96;100627.72;117149;1183;22609;-52
2022/07/02 01:36:54;;;;;;;10.00;7.00;;;;;;;22.18;49.11;100631.86;117310;1185;22651;-51
2022/07/02 01:39:25;;;;;;;9.00;6.70;;;;;;;22.07;49.00;100632.98;117031;1185;22922;-52
2022/07/02 01:41:52;;;;;;;10.80;6.70;;;;;;;21.95;48.95;100631.18;117302;1186;23560;-55
2022/07/02 01:44:19;;;;;;;6.60;5.90;;;;;;;21.83;48.95;100629.15;117328;1186;24165;-52
2022/07/02 01:46:46;;;;;;;8.90;5.80;;;;;;;21.75;48.98;100628.69;117351;1188;22308;-51
2022/07/02 01:49:13;;;;;;;8.00;5.70;;;;;;;21.71;49.05;100632.11;117314;1186;22703;-54
2022/07/02 01:51:40;;;;;;;10.30;5.40;;;;;;;21.69;49.03;100635.98;117298;1185;24152;-54
2022/07/02 01:54:07;;;;;;;11.10;5.10;;;;;;;21.67;49.08;100631.23;117197;1190;21845;-55
2022/07/02 01:56:34;;;;;;;8.20;4.70;;;;;;;21.67;49.03;100632.15;117160;1187;23572;-55
2022/07/02 01:59:01;;;;;;;8.10;4.60;;;;;;;21.66;49.10;100640.61;117179;1187;23548;-55
2022/07/02 02:01:29;;;;;;;11.00;4.90;;;;;;;21.64;49.09;100641.77;117194;1186;22919;-52
2022/07/02 02:03:56;;;;;;;7.70;5.40;;;;;;;21.63;49.02;100644.36;117207;1185;22941;-55
2022/07/02 02:06:23;;;;;;;7.30;4.70;;;;;;;21.62;49.13;100639.38;117129;1188;22868;-52
2022/07/02 02:08:50;;;;;;;5.90;4.30;;;;;;;21.62;49.11;100639.05;117260;1185;23643;-52
2022/07/02 02:11:17;;;;;;;6.90;4.40;;;;;;;21.63;49.16;100641.50;117218;1182;23553;-54
2022/07/02 02:13:44;;;;;;;10.90;5.00;;;;;;;21.62;49.05;100642.23;117345;1185;22811;-55
2022/07/02 02:16:11;;;;;;;8.10;4.30;;;;;;;21.60;49.16;100647.52;117295;1185;22336;-54
2022/07/02 02:18:38;;;;;;;9.60;4.80;;;;;;;21.60;49.35;100659.14;117295;1185;23534;-54
2022/07/02 02:21:05;;;;;;;7.80;4.90;;;;;;;21.63;49.41;100660.27;117340;1184;22908;-55
2022/07/02 02:23:32;;;;;;;6.10;4.30;;;;;;;21.63;49.32;100660.61;117405;1186;21865;-55
2022/07/02 02:25:59;;;;;;;11.90;4.90;;;;;;;21.60;49.22;100663.78;117255;1185;24172;-54
2022/07/02 02:28:26;;;;;;;5.80;3.80;;;;;;;21.57;49.32;100661.41;117295;1185;23640;-55
2022/07/02 02:30:53;;;;;;;10.50;4.40;;;;;;;21.57;49.36;100664.48;117325;1185;21876;-55
2022/07/02 02:33:20;;;;;;;7.40;4.10;;;;;;;21.57;49.34;100662.66;117349;1185;22840;-55
2022/07/02 02:35:47;;;;;;;7.00;3.50;;;;;;;21.59;49.29;100662.38;117335;1183;24245;-55
2022/07/02 02:38:14;;;;;;;9.70;3.70;;;;;;;21.59;49.27;100660.25;117385;1184;22967;-52
2022/07/02 02:40:41;;;;;;;6.10;3.90;;;;;;;21.58;49.29;100662.11;117362;1185;24211;-52
2022/07/02 02:43:08;;;;;;;8.50;3.80;;;;;;;21.57;49.38;100668.73;117322;1185;24178;-55
2022/07/02 02:45:35;;;;;;;4.90;3.80;;;;;;;21.58;49.42;100670.86;117378;1183;22957;-54
2022/07/02 02:48:02;;;;;;;6.80;4.20;;;;;;;21.56;49.40;100674.16;117327;1186;22897;-52
2022/07/02 02:50:29;;;;;;;6.40;4.10;;;;;;;21.54;49.53;100673.89;117434;1186;21852;-52
2022/07/02 02:52:56;;;;;;;6.40;4.10;;;;;;;21.52;49.64;100678.09;117424;1186;21850;-55
2022/07/02 02:55:23;;;;;;;5.80;4.20;;;;;;;21.53;49.63;100675.73;117288;1185;21999;-52
2022/07/02 02:57:50;;;;;;;8.40;3.70;;;;;;;21.55;49.70;100679.22;117376;1182;23566;-55
2022/07/02 03:00:17;;;;;;;6.10;3.90;;;;;;;21.57;49.76;100682.14;117317;1186;22918;-55
2022/07/02 03:02:44;;;;;;;6.60;3.80;;;;;;;21.61;49.68;100686.54;117355;1186;24162;-52
2022/07/02 03:05:11;;;;;;;6.80;3.70;;;;;;;21.67;49.70;100682.13;117313;1186;21918;-55
2022/07/02 03:07:38;;;;;;;18.80;4.50;;;;;;;21.71;49.83;100685.84;117145;1185;22361;-54
2022/07/02 03:10:06;;;;;;;7.60;3.90;;;;;;;21.83;49.91;100688.42;117315;1184;22925;-55
2022/07/02 03:12:33;;;;;;;10.50;4.10;;;;;;;21.93;49.72;100695.58;117297;1186;23536;-55
2022/07/02 03:15:00;;;;;;;9.40;4.00;;;;;;;21.99;49.74;100691.15;117326;1189;22950;-54
2022/07/02 03:17:27;;;;;;;7.10;3.90;;;;;;;22.05;49.76;100688.31;117329;1185;24243;-54
2022/07/02 03:19:54;;;;;;;9.10;4.10;;;;;;;22.10;49.79;100690.17;117324;1185;23474;-54
2022/07/02 03:22:21;;;;;;;11.10;4.30;;;;;;;22.15;49.69;100693.66;117334;1186;21854;-54
2022/07/02 03:24:48;;;;;;;5.20;4.00;;;;;;;22.21;49.69;100689.95;117349;1183;23675;-54
2022/07/02 03:27:15;;;;;;;6.50;3.50;;;;;;;22.28;49.67;100686.70;117313;1184;23627;-54
2022/07/02 03:29:42;;;;;;;9.30;4.60;;;;;;;22.36;49.61;100690.88;117247;1183;22953;-55
2022/07/02 03:32:09;;;;;;;11.80;4.40;;;;;;;22.40;49.74;100695.63;117356;1186;22526;-55
2022/07/02 03:34:35;;;;;;;6.60;4.20;;;;;;;22.42;49.75;100698.37;117294;1186;23283;-52
2022/07/02 03:37:04;;;;;;;5.20;4.30;;;;;;;22.43;49.75;100701.95;117353;1186;21855;-54
2022/07/02 03:39:31;;;;;;;6.70;4.20;;;;;;;22.44;49.90;100705.27;117336;1186;23680;-52
2022/07/02 03:41:57;;;;;;;5.70;4.00;;;;;;;22.47;50.05;100706.78;117274;1185;23554;-53
2022/07/02 03:44:24;;;;;;;8.50;4.10;;;;;;;22.50;50.07;100702.48;117111;1185;21853;-53
2022/07/02 03:46:51;;;;;;;6.50;4.90;;;;;;;22.54;50.12;100699.16;117287;1183;22645;-52
2022/07/02 03:49:18;;;;;;;7.50;4.60;;;;;;;22.62;50.34;100691.20;117222;1189;22888;-54
2022/07/02 03:51:45;;;;;;;7.10;4.90;;;;;;;22.76;50.57;100690.41;117288;1186;22331;-52
2022/07/02 03:54:13;;;;;;;5.40;4.40;;;;;;;22.91;50.69;100692.90;117267;1185;22081;-52
2022/07/02 03:56:39;;;;;;;7.10;4.70;;;;;;;23.10;50.56;100692.88;117335;1186;23478;-54
2022/07/02 03:59:06;;;;;;;6.70;4.50;;;;;;;23.29;50.63;100695.32;117331;1183;22954;-53
2022/07/02 04:01:33;;;;;;;8.60;5.50;;;;;;;23.49;50.71;100695.23;117351;1186;22014;-54
2022/07/02 04:04:00;;;;;;;8.80;5.20;;;;;;;23.71;50.72;100695.15;117234;1186;23646;-54
2022/07/02 04:06:28;;;;;;;6.90;5.10;;;;;;;23.89;50.53;100695.98;117292;1184;21848;-52
2022/07/02 04:08:55;;;;;;;7.50;5.40;;;;;;;24.03;50.38;100701.02;117183;1186;23443;-52
2022/07/02 04:11:21;;;;;;;5.70;5.10;;;;;;;24.16;50.31;100702.20;117380;1186;24211;-55
2022/07/02 04:13:48;;;;;;;7.40;5.40;;;;;;;24.27;50.20;100704.38;117354;1185;22918;-53
2022/07/02 04:16:15;;;;;;;6.50;4.80;;;;;;;24.38;50.32;100708.45;117364;1182;24134;-54
2022/07/02 04:18:42;;;;;;;8.10;5.30;;;;;;;24.50;50.19;100705.20;117188;1188;24217;-52
2022/07/02 04:21:10;;;;;;;6.10;4.90;;;;;;;24.63;50.21;100706.14;117472;1186;21850;-53
2022/07/02 04:23:36;;;;;;;8.20;5.60;;;;;;;24.81;50.21;100707.50;117342;1188;22805;-54
2022/07/02 04:26:05;;;;;;;6.70;5.10;;;;;;;24.96;50.11;100712.07;117433;1183;22904;-54
2022/07/02 04:28:32;;;;;;;6.30;5.70;;;;;;;25.12;49.95;100713.83;117321;1185;22982;-53
2022/07/02 04:30:59;;;;;;;10.90;5.40;;;;;;;25.28;50.01;100715.66;117262;1186;24165;-53
2022/07/02 04:33:26;;;;;;;7.50;4.70;;;;;;;25.45;49.86;100718.24;117315;1184;22988;-54
2022/07/02 04:35:53;;;;;;;9.30;5.10;;;;;;;25.64;49.78;100726.66;117266;1185;21854;-53
2022/07/02 04:38:20;;;;;;;10.00;5.00;;;;;;;25.80;49.71;100731.98;117340;1183;23533;-55
2022/07/02 04:40:47;;;;;;;5.70;4.70;;;;;;;25.94;49.46;100731.71;117355;1185;24833;-54
2022/07/02 04:43:14;;;;;;;8.30;4.70;;;;;;;26.08;49.46;100731.23;117372;1184;22912;-53
2022/07/02 04:45:41;;;;;;;12.90;4.80;;;;;;;26.23;49.41;100732.71;117317;1182;22621;-53
2022/07/02 04:48:08;;;;;;;5.50;4.40;;;;;;;26.43;49.18;100731.46;117414;1185;23541;-53
2022/07/02 04:50:35;;;;;;;6.20;4.30;;;;;;;26.67;49.03;100729.36;117411;1185;21856;-54
2022/07/02 04:53:02;;;;;;;7.00;3.50;;;;;;;26.89;48.80;100729.85;117144;1186;21851;-54
2022/07/02 04:55:29;;;;;;;5.70;3.90;;;;;;;27.10;48.48;100729.41;117345;1181;22911;-54
2022/07/02 04:57:56;;;;;;;9.30;3.80;;;;;;;27.30;48.23;100735.05;117368;1186;22912;-54
2022/07/02 05:00:23;;;;;;;6.50;4.00;;;;;;;27.50;47.95;100737.67;117335;1183;23538;-55
2022/07/02 05:02:50;;;;;;;5.40;3.80;;;;;;;27.68;47.82;100738.06;117363;1185;23541;-54
2022/07/02 05:05:18;;;;;;;4.90;2.90;;;;;;;27.83;47.69;100741.39;117378;1185;21913;-56
2022/07/02 05:07:46;;;;;;;7.20;3.50;;;;;;;28.00;47.15;100745.82;117179;1185;22877;-54
2022/07/02 05:10:13;;;;;;;5.80;4.00;;;;;;;28.16;46.98;100746.42;117341;1186;21859;-52
2022/07/02 05:12:40;;;;;;;6.90;3.60;;;;;;;28.26;46.89;100747.21;117265;1186;22531;-53
2022/07/02 05:15:07;;;;;;;4.90;3.20;;;;;;;28.36;46.97;100749.81;117184;1183;23464;-53
2022/07/02 05:17:34;;;;;;;4.50;3.30;;;;;;;28.52;46.73;100748.34;117330;1185;21958;-55
2022/07/02 05:20:01;;;;;;;5.90;3.20;;;;;;;28.73;46.65;100744.64;117299;1185;21847;-54
2022/07/02 05:22:28;;;;;;;4.60;3.30;;;;;;;28.93;46.29;100744.46;117258;1186;23566;-53
2022/07/02 05:24:55;;;;;;;5.60;3.50;;;;;;;29.13;46.14;100740.10;117291;1186;24171;-54
2022/07/02 05:27:22;;;;;;;8.40;3.20;;;;;;;29.33;45.90;100743.63;117301;1185;22970;-54
2022/07/02 05:29:49;;;;;;;5.30;3.10;;;;;;;29.54;45.65;100747.09;117281;1183;24698;-54
2022/07/02 05:32:16;;;;;;;4.60;3.00;;;;;;;29.73;45.35;100743.80;117285;1186;24222;-53
2022/07/02 05:34:43;;;;;;;4.50;2.90;;;;;;;29.88;44.91;100735.46;117285;1182;22927;-54
2022/07/02 05:37:10;;;;;;;3.80;2.70;;;;;;;29.96;44.63;100735.27;117242;1188;23466;-53
2022/07/02 05:39:37;;;;;;;4.00;2.70;;;;;;;30.00;44.11;100740.05;117353;1186;22906;-54
2022/07/02 05:42:04;;;;;;;3.40;2.70;;;;;;;30.02;43.78;100747.23;117195;1183;22908;-54
2022/07/02 05:44:31;;;;;;;5.20;2.70;;;;;;;30.05;43.70;100748.04;117326;1183;23473;-53
2022/07/02 05:46:58;;;;;;;7.10;2.90;;;;;;;30.15;43.68;100745.39;117198;1188;23544;-54
2022/07/02 05:49:25;;;;;;;4.60;2.60;;;;;;;30.31;43.64;100743.29;117217;1186;21864;-53
2022/07/02 05:51:52;;;;;;;3.70;2.50;;;;;;;30.52;43.59;100743.68;117282;1186;24139;-53
2022/07/02 05:54:20;;;;;;;4.20;2.20;;;;;;;30.78;43.34;100747.89;117177;1187;22920;-53
2022/07/02 05:56:47;;;;;;;3.60;2.50;;;;;;;31.06;43.06;100748.02;117319;1186;22177;-54
2022/07/02 05:59:14;;;;;;;3.10;2.20;;;;;;;31.41;42.72;100748.92;117118;1189;21873;-54
2022/07/02 06:01:41;;;;;;;3.60;2.40;;;;;;;31.68;42.50;100752.52;117291;1183;23465;-54
2022/07/02 06:04:08;;;;;;;6.40;3.10;;;;;;;31.96;42.25;100754.41;117310;1186;22941;-54
2022/07/02 06:09:20;;;;;;;5.70;2.80;;;;;;;32.44;41.49;100759.17;117286;1186;21996;-53
2022/07/02 06:11:47;;;;;;;4.40;2.60;;;;;;;32.62;41.19;100762.12;117205;1186;23438;-53
2022/07/02 06:14:14;;;;;;;5.90;2.60;;;;;;;32.81;41.05;100765.01;117316;1186;21966;-54
2022/07/02 06:16:41;;;;;;;3.30;2.80;;;;;;;33.02;40.55;100763.30;117179;1185;21892;-54
2022/07/02 06:19:08;;;;;;;6.60;2.80;;;;;;;33.19;40.34;100767.71;117328;1186;22854;-53
2022/07/02 06:21:35;;;;;;;5.30;2.60;;;;;;;33.35;40.17;100768.45;117386;1186;23566;-53
2022/07/02 06:24:03;;;;;;;4.80;3.00;;;;;;;33.50;39.89;100763.47;117205;1185;22972;-53
2022/07/02 06:26:30;;;;;;;8.10;2.70;;;;;;;33.60;39.56;100761.39;117304;1184;24276;-54
2022/07/02 06:28:57;;;;;;;4.60;2.60;;;;;;;33.61;39.13;100760.48;117375;1185;24261;-54
2022/07/02 06:31:24;;;;;;;6.40;2.70;;;;;;;33.63;39.17;100762.70;117279;1182;21884;-55
2022/07/02 06:33:51;;;;;;;5.60;2.60;;;;;;;33.61;39.10;100764.99;117323;1183;22915;-54
2022/07/02 06:36:21;;;;;;;5.30;2.50;;;;;;;33.68;39.07;100761.98;117304;1185;23541;-54
2022/07/02 06:38:48;;;;;;;2.90;2.50;;;;;;;33.83;38.49;100758.80;117370;1183;21849;-53
2022/07/02 06:44:02;;;;;;;6.20;2.50;;;;;;;33.96;37.39;100758.48;117302;1186;22913;-54
2022/07/02 06:46:29;;;;;;;5.20;2.50;;;;;;;33.99;37.67;100761.11;117162;1186;22917;-54
2022/07/02 06:48:56;;;;;;;7.50;2.80;;;;;;;34.14;37.76;100763.32;117146;1189;22097;-54
2022/07/02 06:51:24;;;;;;;5.20;2.50;;;;;;;34.35;37.37;100762.35;117364;1186;22927;-54
2022/07/02 06:53:51;;;;;;;4.20;2.50;;;;;;;34.58;37.28;100758.86;117287;1186;22914;-54
2022/07/02 06:56:18;;;;;;;4.90;2.50;;;;;;;34.80;37.11;100761.37;117282;1185;23544;-54
2022/07/02 06:58:45;;;;;;;3.90;2.20;;;;;;;34.95;36.86;100764.33;117335;1185;21923;-55
2022/07/02 07:01:12;;;;;;;5.80;2.60;;;;;;;35.04;36.68;100764.98;117337;1186;22895;-56
2022/07/02 07:03:39;;;;;;;12.20;2.80;;;;;;;35.15;36.47;100765.38;117355;1186;23052;-55
2022/07/02 07:06:06;;;;;;;3.70;2.40;;;;;;;35.30;36.17;100767.42;117292;1186;21843;-54
2022/07/02 07:08:33;;;;;;;4.80;2.40;;;;;;;35.46;36.03;100766.42;117257;1185;24156;-54
2022/07/02 07:11:00;;;;;;;4.60;2.40;;;;;;;35.62;35.73;100771.48;117238;1183;24158;-54
2022/07/02 07:13:27;;;;;;;6.80;2.50;;;;;;;35.71;35.49;100775.29;117286;1186;21865;-54
2022/07/02 07:15:54;;;;;;;8.30;2.70;;;;;;;35.70;35.41;100777.79;117236;1183;21863;-55
2022/07/02 07:18:21;;;;;;;3.20;2.30;;;;;;;35.68;35.15;100779.19;117288;1188;22953;-54
2022/07/02 07:20:49;;;;;;;5.00;2.60;;;;;;;35.67;34.95;100781.69;117298;1183;21888;-54
2022/07/02 07:23:16;;;;;;;4.60;2.40;;;;;;;35.61;34.89;100783.92;117311;1182;23484;-55
2022/07/02 07:25:43;;;;;;;4.00;2.40;;;;;;;35.49;34.84;100787.44;117294;1186;22817;-55
2022/07/02 07:28:12;;;;;;;4.00;2.30;;;;;;;35.44;34.67;100785.54;117247;1183;21862;-55
2022/07/02 07:30:39;;;;;;;4.40;2.40;;;;;;;35.37;34.66;100789.02;117236;1185;24179;-55
2022/07/02 07:33:06;;;;;;;6.20;2.70;;;;;;;35.32;34.49;100787.23;117088;1188;23036;-55
2022/07/02 07:35:33;;;;;;;7.60;2.40;;;;;;;35.36;34.29;100786.97;117241;1189;21856;-54
2022/07/02 07:38:02;;;;;;;5.30;2.80;;;;;;;35.46;34.32;100787.39;117283;1186;23566;-56
2022/07/02 07:40:29;;;;;;;3.60;2.20;;;;;;;35.67;34.15;100789.21;117242;1186;23516;-55
2022/07/02 07:42:56;;;;;;;4.50;2.40;;;;;;;35.95;34.00;100790.42;117194;1184;21894;-56
2022/07/02 07:45:23;;;;;;;4.70;2.30;;;;;;;36.30;33.41;100792.86;117242;1183;22916;-55
2022/07/02 07:47:49;;;;;;;5.90;2.30;;;;;;;36.68;33.27;100791.95;117333;1186;22078;-55
2022/07/02 07:50:16;;;;;;;4.90;2.70;;;;;;;36.97;32.72;100794.00;117221;1189;22917;-55
2022/07/02 07:52:43;;;;;;;4.20;2.80;;;;;;;37.19;32.15;100798.94;117153;1188;24263;-54
2022/07/02 07:55:10;;;;;;;3.00;2.30;;;;;;;37.32;32.26;100804.94;117250;1185;23541;-55
2022/07/02 07:57:37;;;;;;;4.10;2.10;;;;;;;37.46;31.92;100803.77;117248;1182;21853;-55
2022/07/02 08:00:05;;;;;;;6.80;2.50;;;;;;;37.60;32.08;100803.44;117312;1186;23488;-55
2022/07/02 08:02:32;;;;;;;6.40;2.50;;;;;;;37.80;32.18;100803.53;117250;1183;22916;-56
2022/07/02 08:05:05;;;;;;;4.50;2.60;;;;;;;38.07;31.95;100804.14;117236;1186;23504;-55
2022/07/02 08:07:36;;;;;;;5.10;2.00;;;;;;;38.27;31.54;100807.49;117330;1189;24157;-55
2022/07/02 08:10:08;;;;;;;3.90;2.20;;;;;;;38.42;31.01;100812.47;117322;1186;24166;-56
2022/07/02 08:12:35;;;;;;;4.20;2.40;;;;;;;38.45;31.07;100815.45;117246;1185;23355;-55
2022/07/02 08:15:05;;;;;;;4.00;2.30;;;;;;;38.39;30.85;100815.16;117266;1183;22621;-55
2022/07/02 08:17:32;;;;;;;9.30;6.40;;;;;;;38.35;30.82;100817.02;117235;1186;22156;-55
2022/07/02 08:19:59;;;;;;;7.60;3.90;;;;;;;38.36;30.31;100821.19;117268;1184;22936;-55
2022/07/02 08:22:26;;;;;;;6.80;4.60;;;;;;;38.44;30.02;100817.66;117196;1189;23659;-55
2022/07/02 08:24:53;;;;;;;9.50;6.70;;;;;;;38.51;30.06;100817.54;117254;1186;23448;-55
2022/07/02 08:27:20;;;;;;;6.70;5.00;;;;;;;38.71;30.29;100815.94;117279;1186;22918;-55
2022/07/02 08:29:47;;;;;;;8.10;5.00;;;;;;;38.84;29.33;100821.30;117108;1183;23560;-55
2022/07/02 08:32:14;;;;;;;5.50;3.20;;;;;;;38.90;29.73;100822.97;117271;1185;23460;-55
2022/07/02 08:34:41;;;;;;;4.00;2.50;;;;;;;39.07;29.81;100819.69;117256;1186;23576;-55
2022/07/02 08:37:09;;;;;;;3.80;2.60;;;;;;;39.29;29.49;100824.22;117125;1188;23285;-55
2022/07/02 08:39:36;;;;;;;4.50;2.10;;;;;;;39.48;28.91;100820.30;117142;1189;23603;-55
2022/07/02 08:42:04;;;;;;;3.70;2.10;;;;;;;39.64;28.96;100823.52;117289;1186;21880;-54
2022/07/02 08:44:31;;;;;;;4.20;2.70;;;;;;;39.85;29.15;100829.08;117286;1182;22921;-53
2022/07/02 08:46:59;;;;;;;2.90;2.20;;;;;;;40.11;28.85;100828.75;117172;1189;21971;-55
2022/07/02 08:49:26;;;;;;;4.00;2.50;;;;;;;40.37;28.56;100826.05;117301;1182;22920;-54
2022/07/02 08:52:03;;;;;;;5.60;2.10;;;;;;;40.57;28.13;100831.01;117377;1185;23005;-56
2022/07/02 08:54:31;;;;;;;3.50;2.20;;;;;;;40.77;28.09;100835.45;117133;1188;22915;-55
2022/07/02 08:57:00;;;;;;;4.40;2.50;;;;;;;41.09;27.38;100833.95;117369;1182;24162;-55
2022/07/02 08:59:29;;;;;;;8.30;2.80;;;;;;;41.44;27.38;100832.36;117279;1189;23638;-54
2022/07/02 09:01:56;;;;;;;;;;;;;;;41.79;26.37;100836.67;117216;1189;22976;-55
2022/07/02 09:04:23;;;;;;;6.30;2.30;;;;;;;41.68;25.25;100839.92;117127;1188;21857;-55
2022/07/02 09:06:53;;;;;;;13.70;8.20;;;;;;;41.36;26.41;100835.42;117141;1188;21861;-54
2022/07/02 09:09:20;;;;;;;8.20;4.60;;;;;;;41.36;26.30;100839.66;117262;1186;21850;-56
2022/07/02 09:11:48;;;;;;;11.80;8.90;;;;;;;41.41;26.00;100834.65;117231;1185;21984;-56
2022/07/02 09:14:15;;;;;;;8.90;5.80;;;;;;;41.39;25.94;100832.23;117555;1185;24681;-56
2022/07/02 09:16:42;;;;;;;6.80;4.40;;;;;;;41.46;25.97;100832.40;116998;1189;21852;-54
2022/07/02 09:19:09;;;;;;;5.20;2.90;;;;;;;41.60;26.19;100832.87;117167;1183;22809;-53
2022/07/02 09:21:51;;;;;;;71.10;52.80;;;;;;;41.76;25.29;100834.30;117194;1189;23547;-54
2022/07/02 09:24:32;;;;;;;28.70;24.40;;;;;;;41.86;24.53;100829.52;117210;1183;21857;-55
2022/07/02 09:27:02;;;;;;;9.80;7.70;;;;;;;41.95;24.73;100831.25;117162;1186;23560;-54
2022/07/02 09:29:40;;;;;;;12.50;8.40;;;;;;;42.01;24.05;100833.13;117213;1186;21830;-54
2022/07/02 09:32:07;;;;;;;34.70;28.90;;;;;;;41.97;22.30;100826.33;117266;1183;23543;-54
2022/07/02 09:34:34;;;;;;;18.00;14.70;;;;;;;41.67;24.11;100836.48;117112;1188;22908;-54
2022/07/02 09:37:11;;;;;;;6.70;4.60;;;;;;;41.61;24.59;100836.84;117268;1186;22620;-54
2022/07/02 09:39:40;;;;;;;6.00;3.30;;;;;;;41.71;24.64;100830.27;117172;1188;22153;-55
2022/07/02 09:42:06;;;;;;;10.60;9.10;;;;;;;41.79;24.41;100832.39;117334;1183;22738;-55
2022/07/02 09:44:33;;;;;;;36.90;33.00;;;;;;;41.79;23.16;100827.92;117137;1187;22841;-53
2022/07/02 09:47:00;;;;;;;17.50;15.20;;;;;;;41.70;23.51;100831.48;116999;1186;21867;-54
2022/07/02 09:49:28;;;;;;;4.50;3.90;;;;;;;41.90;24.21;100838.45;117227;1186;22927;-53
2022/07/02 09:51:54;;;;;;;4.10;2.90;;;;;;;41.89;23.63;100830.11;117258;1186;22915;-54
2022/07/02 09:54:23;;;;;;;5.90;3.30;;;;;;;41.71;23.41;100829.60;117163;1189;22696;-55
2022/07/02 09:56:54;;;;;;;9.10;3.80;;;;;;;41.67;23.80;100828.45;117329;1183;21916;-56
2022/07/02 09:59:22;;;;;;;5.20;3.20;;;;;;;41.76;24.13;100825.84;117238;1188;22960;-54
2022/07/02 10:01:49;;;;;;;9.20;2.90;;;;;;;41.95;24.12;100822.63;117228;1182;23567;-54
2022/07/02 10:04:32;;;;;;;27.00;22.10;;;;;;;42.23;23.64;100818.80;117263;1186;22456;-54
2022/07/02 10:07:00;;;;;;;17.40;12.80;;;;;;;42.46;23.65;100820.45;117361;1182;21844;-54
2022/07/02 10:09:28;;;;;;;7.00;6.00;;;;;;;42.71;23.75;100820.46;117352;1186;21844;-56
2022/07/02 10:11:55;;;;;;;8.20;2.60;;;;;;;43.00;22.65;100820.63;117367;1183;22752;-54
2022/07/02 10:14:22;;;;;;;4.40;2.80;;;;;;;42.90;22.11;100815.91;117220;1186;22036;-54
2022/07/02 10:16:51;;;;;;;4.80;2.50;;;;;;;42.71;23.04;100811.55;117139;1186;22461;-54
2022/07/02 10:19:20;;;;;;;11.70;6.70;;;;;;;42.77;23.09;100815.02;117219;1185;24146;-54
2022/07/02 10:21:47;;;;;;;7.80;6.20;;;;;;;42.79;23.00;100816.91;117321;1185;21991;-54
2022/07/02 10:24:14;;;;;;;6.80;3.80;;;;;;;42.70;22.64;100818.89;117160;1186;21853;-55
2022/07/02 10:26:41;;;;;;;3.80;2.40;;;;;;;42.55;22.63;100821.48;117304;1183;22670;-55
2022/07/02 10:29:08;;;;;;;7.30;2.60;;;;;;;42.38;23.04;100826.35;117177;1186;22725;-54
2022/07/02 10:31:41;;;;;;;3.10;1.90;;;;;;;42.35;22.92;100830.36;117090;1186;22857;-54
2022/07/02 10:34:39;;;;;;;4.60;2.00;;;;;;;42.37;23.02;100825.67;117309;1186;21860;-55
2022/07/02 10:37:07;;;;;;;5.30;2.50;;;;;;;42.38;22.65;100820.19;117657;1186;21854;-55
2022/07/02 10:39:52;;;;;;;7.70;3.00;;;;;;;42.34;22.68;100822.47;117164;1187;21969;-56
2022/07/02 10:42:19;;;;;;;2.50;2.10;;;;;;;42.30;22.60;100826.77;116998;1188;22697;-56
2022/07/02 10:44:47;;;;;;;3.90;2.00;;;;;;;42.04;22.34;100827.45;117274;1182;21856;-55
2022/07/02 10:47:18;;;;;;;4.80;2.00;;;;;;;41.65;22.42;100828.84;117275;1182;21963;-56
2022/07/02 10:49:57;;;;;;;3.30;1.80;;;;;;;41.33;22.40;100829.98;117339;1186;23621;-56
2022/07/02 10:52:50;;;;;;;4.40;2.10;;;;;;;41.05;22.58;100827.52;117392;1185;21858;-55
2022/07/02 10:55:30;;;;;;;4.60;2.00;;;;;;;41.03;23.15;100825.27;117219;1185;21854;-56
2022/07/02 10:58:02;;;;;;;6.10;2.10;;;;;;;41.21;22.52;100822.98;117186;1182;22924;-55
2022/07/02 11:00:38;;;;;;;2.80;2.10;;;;;;;41.19;22.51;100822.08;117375;1181;22488;-54
2022/07/02 11:03:26;;;;;;;3.00;2.10;;;;;;;41.24;22.78;100823.45;117197;1185;22920;-55
2022/07/02 11:06:00;;;;;;;4.80;1.90;;;;;;;41.46;22.52;100822.96;117362;1183;21854;-55
2022/07/02 11:08:53;;;;;;;3.30;1.80;;;;;;;41.67;22.63;100815.74;117433;1186;21970;-55
2022/07/02 11:11:36;;;;;;;2.20;1.80;;;;;;;41.93;22.38;100813.45;117293;1186;21854;-55
2022/07/02 11:14:05;;;;;;;3.70;1.70;;;;;;;41.87;21.93;100810.01;117382;1185;23528;-55
2022/07/02 11:16:48;;;;;;;4.10;2.20;;;;;;;41.77;21.96;100807.26;117300;1182;22644;-55
2022/07/02 11:19:16;;;;;;;3.30;1.70;;;;;;;41.81;21.91;100814.61;117254;1185;21845;-55
2022/07/02 11:21:44;;;;;;;2.70;1.80;;;;;;;41.84;21.82;100813.50;117343;1185;23585;-55
2022/07/02 11:24:10;;;;;;;3.90;2.10;;;;;;;41.97;21.93;100812.51;117372;1186;21853;-55
2022/07/02 11:26:42;;;;;;;3.60;1.80;;;;;;;42.21;21.91;100813.50;117324;1185;21864;-55